Wetterdaten: August 2008
Datum Temp Feuchte Luftdruck Regen Wind Richtung Sonnenschein UV Solar Windben
01.08.2008 22,2 C 68 % 1014,2 hPa 1,4 l/m 6,7 km/h S 6,83 h 3,1 UV-I 329 W/m 13,7 km/h
02.08.2008 18,5 C 71 % 1015,2 hPa 0,0 l/m 4,6 km/h S 4,92 h 2,7 UV-I 283 W/m 5,6 km/h
03.08.2008 18,1 C 85 % 1011,8 hPa 3,8 l/m 5,3 km/h S 3,42 h 2,9 UV-I 285 W/m 11,6 km/h
04.08.2008 17,0 C 73 % 1008,3 hPa 14,0 l/m 9,3 km/h S 3,87 h 2,6 UV-I 291 W/m 21,3 km/h
05.08.2008 16,4 C 80 % 1015,5 hPa 0,0 l/m 4,2 km/h S 3,42 h 2,8 UV-I 252 W/m 12,1 km/h
06.08.2008 21,3 C 72 % 1013,6 hPa 0,0 l/m 1,4 km/h S 6,42 h 3,4 UV-I 357 W/m 4,8 km/h
07.08.2008 22,2 C 65 % 1005,5 hPa 3,2 l/m 11,9 km/h S 9,08 h 3,2 UV-I 352 W/m 23,7 km/h
08.08.2008 16,4 C 86 % 1006,0 hPa 8,6 l/m 7,5 km/h S 4,75 h 2,6 UV-I 314 W/m 15,7 km/h
09.08.2008 13,6 C 81 % 1013,6 hPa 0,0 l/m 4,1 km/h NW 3,92 h 2,3 UV-I 249 W/m 10,1 km/h
10.08.2008 15,9 C 89 % 1007,3 hPa 4,4 l/m 7,8 km/h S 0,33 h 1,6 UV-I 132 W/m 13,7 km/h
11.08.2008 16,7 C 78 % 1005,0 hPa 0,2 l/m 3,3 km/h S 7,90 h 2,5 UV-I 333 W/m 5,2 km/h
12.08.2008 15,7 C 93 % 998,2 hPa 8,6 l/m 8,2 km/h S 0,58 h 1,3 UV-I 133 W/m 14,1 km/h
13.08.2008 15,1 C 77 % 1007,6 hPa 1,4 l/m 12,7 km/h S 5,50 h 2,1 UV-I 290 W/m 18,9 km/h
14.08.2008 14,6 C 75 % 1014,4 hPa 0,0 l/m 4,0 km/h S 8,25 h 2,6 UV-I 365 W/m 5,6 km/h
15.08.2008 13,3 C 82 % 1014,2 hPa 0,0 l/m 2,1 km/h N 2,42 h 1,4 UV-I 178 W/m 4,8 km/h
16.08.2008 13,6 C 76 % 1012,9 hPa 0,0 l/m 1,4 km/h N-NO 10,42 h 2,7 UV-I 411 W/m 2,4 km/h
17.08.2008 16,0 C 69 % 1010,3 hPa 0,0 l/m 4,2 km/h S 6,33 h 2,3 UV-I 293 W/m 8,0 km/h
18.08.2008 16,9 C 83 % 1010,1 hPa 1,0 l/m 3,9 km/h S 2,92 h 2,6 UV-I 231 W/m 7,2 km/h
19.08.2008 16,1 C 79 % 1008,2 hPa 7,0 l/m 4,4 km/h S 4,57 h 2,5 UV-I 271 W/m 8,0 km/h
20.08.2008 15,9 C 79 % 1012,8 hPa 3,4 l/m 8,1 km/h S 1,58 h 1,7 UV-I 161 W/m 15,3 km/h
21.08.2008 16,6 C 73 % 1016,5 hPa 0,0 l/m 6,3 km/h S 3,17 h 2,2 UV-I 225 W/m 16,1 km/h
22.08.2008 14,4 C 93 % 1011,0 hPa 12,8 l/m 2,8 km/h S 0,08 h 1,2 UV-I 99 W/m 7,3 km/h
23.08.2008 12,0 C 94 % 1010,1 hPa 26,0 l/m 8,5 km/h NW 1,58 h 1,7 UV-I 171 W/m 18,9 km/h
24.08.2008 13,7 C 88 % 1013,6 hPa 0,2 l/m 3,4 km/h W-NW 4,00 h 2,6 UV-I 285 W/m 6,9 km/h
25.08.2008 15,2 C 90 % 1016,8 hPa 3,8 l/m 3,0 km/h S 1,65 h 1,6 UV-I 155 W/m 4,8 km/h
26.08.2008 16,1 C 86 % 1022,2 hPa 0,0 l/m 2,2 km/h S 0,00 h 1,5 UV-I 128 W/m 4,4 km/h
27.08.2008 16,3 C 84 % 1020,8 hPa 0,0 l/m 6,0 km/h S 2,83 h 2,2 UV-I 230 W/m 13,3 km/h
28.08.2008 15,5 C 94 % 1019,0 hPa 1,4 l/m 5,4 km/h NW 0,08 h 1,3 UV-I 97 W/m 13,3 km/h
29.08.2008 16,4 C 90 % 1018,9 hPa 0,4 l/m 3,8 km/h NW 2,17 h 1,9 UV-I 166 W/m 10,8 km/h
30.08.2008 14,9 C 84 % 1019,7 hPa 0,0 l/m 1,9 km/h SO 10,83 h 3,4 UV-I 419 W/m 4,8 km/h
31.08.2008 18,6 C 69 % 1014,0 hPa 0,0 l/m 4,8 km/h SO 10,33 h 3,1 UV-I 392 W/m 8,0 km/h
Min-Datum 16.08.08 17.08.08 12.08.08 18 Tage 01.08.08 - - - - 01.08.08
Min-Zeit 06:45 14:55 15:45 - 10:35 - - - - 22:35
Minimum 6,3 C 42 % 995,7 hPa - 0,0 km/h - - - - 0,0 km/h
Max-Datum 07.08.08 23.08.08 26.08.08 23.08.08 13.08.08 - 30.08.08 09.08.08 09.08.08 13.08.08
Max-Zeit 14:50 06:05 22:50 16:05 13:35 - 19:05 13:15 13:15 14:05
Maximum 29,6 C 100 % 1023,0 hPa 26,0 l/m 35,4 km/h
S
- 10,75 h 7,3 UV-I 1130 W/m 51,5 km/h
S
Durchschnitt 16,3 C 81 % 1012,5 hPa #101,6 l/m 5,3 km/h S #134:09 h 2,3 UV-I 254 W/m 10,7 km/h

Durchschnitt Minimum Temp.12,2 C
Durchschnitt Maximum Temp.21,2 C